Time;durP1;ratioP1;P1;durP2;ratioP2;P2;SDS_P1;SDS_P2;PMS_P1;PMS_P2;Temp;Humidity;BMP_temperature;BMP_pressure;BME280_temperature;BME280_humidity;BME280_pressure;Samples;Min_cycle;Max_cycle;Signal;HPM_P1;HPM_P2
2022/10/26 00:02:17;;;;;;;18.88;12.45;;;;;;;;;;5134398;27;20531;-80
2022/10/26 00:04:43;;;;;;;19.65;12.00;;;;;;;;;;5121500;27;20031;-80
2022/10/26 00:07:09;;;;;;;17.45;12.45;;;;;;;;;;5113961;28;20015;-80
2022/10/26 00:09:35;;;;;;;19.40;12.32;;;;;;;;;;5113645;28;20103;-78
2022/10/26 00:12:01;;;;;;;18.13;11.55;;;;;;;;;;5113689;28;20462;-79
2022/10/26 00:14:27;;;;;;;16.70;10.73;;;;;;;;;;5113579;28;20027;-79
2022/10/26 00:16:53;;;;;;;18.30;11.88;;;;;;;;;;5113943;28;20075;-79
2022/10/26 00:19:20;;;;;;;19.90;12.07;;;;;;;;;;5122881;27;20046;-79
2022/10/26 00:21:46;;;;;;;24.52;13.50;;;;;;;;;;5134273;27;20419;-79
2022/10/26 00:24:12;;;;;;;17.80;13.02;;;;;;;;;;5134125;27;20026;-81
2022/10/26 00:26:38;;;;;;;21.73;12.35;;;;;;;;;;5115761;27;20070;-81
2022/10/26 00:29:07;;;;;;;18.23;13.07;;;;;;;;;;5134217;27;20110;-80
2022/10/26 00:31:33;;;;;;;18.92;11.82;;;;;;;;;;5134017;27;20067;-80
2022/10/26 00:33:59;;;;;;;18.15;12.88;;;;;;;;;;5134189;27;20389;-79
2022/10/26 00:36:25;;;;;;;16.55;12.13;;;;;;;;;;5113682;27;20136;-79
2022/10/26 00:38:53;;;;;;;16.45;11.77;;;;;;;;;;5113492;28;20102;-79
2022/10/26 00:41:21;;;;;;;18.80;12.30;;;;;;;;;;5113259;28;20026;-79
2022/10/26 00:43:48;;;;;;;17.60;12.73;;;;;;;;;;5113328;28;20466;-79
2022/10/26 00:46:34;;;;;;;18.73;12.38;;;;;;;;;;5113398;28;20155;-80
2022/10/26 00:49:19;;;;;;;19.83;13.00;;;;;;;;;;5113760;28;20023;-79
2022/10/26 00:51:45;;;;;;;;;;;;;;;;;;5125619;27;20130;-79
2022/10/26 00:54:13;;;;;;;19.63;13.77;;;;;;;;;;5129017;27;19991;-79
2022/10/26 00:56:39;;;;;;;19.77;13.35;;;;;;;;;;5133376;27;20077;-79
2022/10/26 00:59:07;;;;;;;17.02;13.35;;;;;;;;;;5133520;27;20433;-79
2022/10/26 01:01:35;;;;;;;20.45;13.93;;;;;;;;;;5133608;27;20377;-80
2022/10/26 01:04:01;;;;;;;18.95;14.32;;;;;;;;;;5133251;27;20058;-79
2022/10/26 01:06:31;;;;;;;22.27;14.27;;;;;;;;;;5113269;28;20391;-80
2022/10/26 01:08:57;;;;;;;18.77;13.23;;;;;;;;;;5112874;28;20020;-80
2022/10/26 01:11:23;;;;;;;22.52;14.02;;;;;;;;;;5113120;28;20023;-80
2022/10/26 01:13:50;;;;;;;20.05;14.63;;;;;;;;;;5112689;28;20032;-80
2022/10/26 01:16:17;;;;;;;19.92;13.82;;;;;;;;;;5113040;28;20034;-80
2022/10/26 01:18:52;;;;;;;19.25;13.50;;;;;;;;;;5112803;28;20529;-80
2022/10/26 01:21:40;;;;;;;24.45;13.23;;;;;;;;;;5112954;28;20040;-80
2022/10/26 01:24:18;;;;;;;17.88;13.38;;;;;;;;;;5115872;28;20529;-80
2022/10/26 01:26:53;;;;;;;16.40;13.32;;;;;;;;;;5117225;28;20474;-80
2022/10/26 01:29:25;;;;;;;18.80;13.65;;;;;;;;;;5117008;28;20056;-80
2022/10/26 01:31:58;;;;;;;17.58;13.02;;;;;;;;;;5117051;28;20465;-80
2022/10/26 01:34:27;;;;;;;21.02;13.23;;;;;;;;;;5121879;27;20035;-80
2022/10/26 01:36:56;;;;;;;18.35;13.40;;;;;;;;;;5137421;27;20430;-79
2022/10/26 01:39:24;;;;;;;19.65;13.25;;;;;;;;;;5137471;27;20050;-80
2022/10/26 01:41:52;;;;;;;20.45;14.18;;;;;;;;;;5137440;27;20093;-80
2022/10/26 01:44:21;;;;;;;18.55;13.45;;;;;;;;;;5137264;27;20087;-80
2022/10/26 01:46:48;;;;;;;16.50;12.32;;;;;;;;;;5137302;27;20019;-79
2022/10/26 01:49:16;;;;;;;18.08;13.73;;;;;;;;;;5133052;27;20073;-80
2022/10/26 01:51:43;;;;;;;22.85;13.60;;;;;;;;;;5116513;28;20154;-80
2022/10/26 01:54:09;;;;;;;18.65;14.10;;;;;;;;;;5116538;28;20112;-80
2022/10/26 01:56:39;;;;;;;21.83;14.52;;;;;;;;;;5116573;28;20027;-80
2022/10/26 01:59:08;;;;;;;17.42;13.90;;;;;;;;;;5116409;28;20020;-80
2022/10/26 02:01:52;;;;;;;17.73;13.60;;;;;;;;;;5117624;27;20095;-80
2022/10/26 02:04:30;;;;;;;23.75;14.75;;;;;;;;;;5116400;28;20110;-79
2022/10/26 02:07:15;;;;;;;17.90;14.18;;;;;;;;;;5116596;28;20057;-79
2022/10/26 02:09:46;;;;;;;21.42;14.00;;;;;;;;;;5116319;28;20016;-80
2022/10/26 02:12:29;;;;;;;19.02;14.90;;;;;;;;;;5116234;28;20032;-79
2022/10/26 02:15:01;;;;;;;24.92;14.38;;;;;;;;;;5121201;27;20111;-79
2022/10/26 02:17:48;;;;;;;21.63;13.95;;;;;;;;;;5136837;27;20032;-79
2022/10/26 02:20:17;;;;;;;19.63;14.07;;;;;;;;;;5136858;27;20076;-80
2022/10/26 02:22:47;;;;;;;20.75;15.25;;;;;;;;;;5136564;27;20027;-80
2022/10/26 02:25:17;;;;;;;19.33;14.63;;;;;;;;;;5136566;27;20388;-79
2022/10/26 02:27:46;;;;;;;20.10;15.40;;;;;;;;;;5136372;27;20019;-80
2022/10/26 02:30:12;;;;;;;21.45;15.23;;;;;;;;;;5128681;27;20024;-80
2022/10/26 02:32:41;;;;;;;18.35;13.85;;;;;;;;;;5115767;28;20034;-80
2022/10/26 02:35:07;;;;;;;17.75;13.98;;;;;;;;;;5115743;28;20027;-80
2022/10/26 02:37:35;;;;;;;18.42;13.07;;;;;;;;;;5115675;28;20032;-80
2022/10/26 02:40:03;;;;;;;19.67;13.32;;;;;;;;;;5115890;28;20031;-79
2022/10/26 02:42:30;;;;;;;18.83;15.23;;;;;;;;;;5115684;28;20099;-78
2022/10/26 02:44:58;;;;;;;18.02;13.65;;;;;;;;;;5116566;27;20015;-80
2022/10/26 02:47:27;;;;;;;21.38;14.07;;;;;;;;;;5115645;28;20367;-80
2022/10/26 02:49:54;;;;;;;17.42;12.45;;;;;;;;;;5115526;28;20467;-80
2022/10/26 02:52:29;;;;;;;21.17;13.18;;;;;;;;;;5115413;28;20083;-81
2022/10/26 02:55:02;;;;;;;24.45;15.00;;;;;;;;;;5115497;28;20103;-80
2022/10/26 02:57:47;;;;;;;20.90;14.40;;;;;;;;;;5115258;28;20600;-80
2022/10/26 03:00:14;;;;;;;16.67;13.85;;;;;;;;;;5122789;27;20027;-80
2022/10/26 03:03:02;;;;;;;24.02;12.93;;;;;;;;;;5135818;27;20489;-80
2022/10/26 03:05:32;;;;;;;19.15;13.75;;;;;;;;;;5135955;27;20393;-80
2022/10/26 03:07:59;;;;;;;20.15;14.40;;;;;;;;;;5135694;27;20056;-80
2022/10/26 03:10:25;;;;;;;22.25;14.35;;;;;;;;;;5135861;27;20019;-80
2022/10/26 03:12:52;;;;;;;17.35;11.88;;;;;;;;;;5135451;27;20075;-80
2022/10/26 03:15:18;;;;;;;17.38;12.65;;;;;;;;;;5126961;27;20169;-80
2022/10/26 03:17:44;;;;;;;21.13;15.32;;;;;;;;;;5114983;28;20481;-80
2022/10/26 03:20:10;;;;;;;20.35;14.82;;;;;;;;;;5114860;28;20023;-80
2022/10/26 03:22:36;;;;;;;24.25;16.38;;;;;;;;;;5115006;28;20073;-80
2022/10/26 03:25:03;;;;;;;23.05;16.27;;;;;;;;;;5114596;28;20023;-79
2022/10/26 03:27:29;;;;;;;27.38;18.25;;;;;;;;;;5114906;28;20099;-80
2022/10/26 03:29:56;;;;;;;30.17;18.35;;;;;;;;;;5119600;27;20023;-80
2022/10/26 03:32:22;;;;;;;28.20;18.85;;;;;;;;;;5135361;27;20486;-80
2022/10/26 03:34:48;;;;;;;27.95;17.42;;;;;;;;;;5135058;27;20038;-80
2022/10/26 03:37:14;;;;;;;24.60;15.82;;;;;;;;;;5135324;27;20104;-79
2022/10/26 03:39:40;;;;;;;21.63;14.00;;;;;;;;;;5135096;27;20023;-79
2022/10/26 03:42:06;;;;;;;18.23;13.30;;;;;;;;;;5134991;27;20030;-80
2022/10/26 03:44:33;;;;;;;20.05;14.55;;;;;;;;;;5132667;27;20114;-80
2022/10/26 03:46:59;;;;;;;19.42;12.82;;;;;;;;;;5113800;28;20023;-80
2022/10/26 03:49:25;;;;;;;20.42;13.85;;;;;;;;;;5114493;28;20356;-80
2022/10/26 03:51:51;;;;;;;19.45;14.05;;;;;;;;;;5113914;28;20047;-79
2022/10/26 03:54:17;;;;;;;16.85;13.73;;;;;;;;;;5114202;28;20026;-80
2022/10/26 03:56:47;;;;;;;17.80;13.00;;;;;;;;;;5114283;28;20024;-80
2022/10/26 03:59:13;;;;;;;20.45;15.60;;;;;;;;;;5114023;28;20028;-79
2022/10/26 04:01:40;;;;;;;25.88;16.52;;;;;;;;;;5133956;27;20026;-80
2022/10/26 04:04:06;;;;;;;24.67;16.70;;;;;;;;;;5121212;27;20031;-80
2022/10/26 04:06:32;;;;;;;21.20;16.67;;;;;;;;;;5114246;28;20019;-80
2022/10/26 04:09:01;;;;;;;22.40;15.35;;;;;;;;;;5113852;28;20020;-80
2022/10/26 04:11:27;;;;;;;21.17;14.48;;;;;;;;;;5114098;28;20527;-80
2022/10/26 04:13:54;;;;;;;17.45;14.88;;;;;;;;;;5113873;28;20031;-80
2022/10/26 04:16:20;;;;;;;23.17;15.98;;;;;;;;;;5113855;28;20031;-80
2022/10/26 04:18:46;;;;;;;21.88;15.98;;;;;;;;;;5113952;28;20027;-79
2022/10/26 04:21:12;;;;;;;20.38;15.90;;;;;;;;;;5113575;28;20024;-80
2022/10/26 04:23:39;;;;;;;18.48;13.68;;;;;;;;;;5113785;28;20074;-82
2022/10/26 04:26:05;;;;;;;19.00;13.43;;;;;;;;;;5113641;28;20028;-82
2022/10/26 04:28:31;;;;;;;19.85;13.02;;;;;;;;;;5113858;28;20024;-83
2022/10/26 04:30:57;;;;;;;17.60;13.43;;;;;;;;;;5095413;28;20575;-82
2022/10/26 04:33:23;;;;;;;18.60;13.27;;;;;;;;;;5113668;28;20028;-83
2022/10/26 04:35:50;;;;;;;19.65;14.55;;;;;;;;;;5113575;28;20051;-83
2022/10/26 04:38:16;;;;;;;21.33;14.60;;;;;;;;;;5113367;28;20038;-85
2022/10/26 04:40:42;;;;;;;19.35;13.63;;;;;;;;;;5095388;28;20023;-84
2022/10/26 04:43:08;;;;;;;19.92;13.55;;;;;;;;;;5113228;28;20389;-84
2022/10/26 04:45:34;;;;;;;17.55;13.95;;;;;;;;;;5113290;28;20020;-83
2022/10/26 04:48:04;;;;;;;18.00;13.48;;;;;;;;;;5113291;28;20019;-84
2022/10/26 04:50:30;;;;;;;16.67;13.45;;;;;;;;;;5113295;28;20077;-83
2022/10/26 04:52:56;;;;;;;17.95;13.52;;;;;;;;;;5095045;28;20051;-82
2022/10/26 04:55:23;;;;;;;21.20;13.50;;;;;;;;;;5112987;28;20027;-84
2022/10/26 04:57:52;;;;;;;20.45;13.60;;;;;;;;;;5112309;28;20024;-83
2022/10/26 05:00:18;;;;;;;17.30;12.88;;;;;;;;;;5112957;28;20054;-84
2022/10/26 05:03:13;;;;;;;16.88;12.88;;;;;;;;;;5113077;28;20028;-84
2022/10/26 05:05:40;;;;;;;20.23;13.15;;;;;;;;;;5048675;28;20052;-82
2022/10/26 05:08:06;;;;;;;19.70;12.85;;;;;;;;;;5049925;28;20404;-83
2022/10/26 05:10:32;;;;;;;18.52;12.57;;;;;;;;;;5050361;28;20033;-84
2022/10/26 05:13:17;;;;;;;18.08;12.73;;;;;;;;;;5049567;28;20087;-84
2022/10/26 05:15:43;;;;;;;23.33;13.88;;;;;;;;;;5094493;28;20111;-83
2022/10/26 05:18:16;;;;;;;16.00;11.75;;;;;;;;;;5112954;28;20020;-84
2022/10/26 05:20:44;;;;;;;19.00;13.90;;;;;;;;;;5094434;28;20024;-84
2022/10/26 05:23:20;;;;;;;;;;;;;;;;;;;;;
2022/10/26 05:25:49;;;;;;;17.85;13.07;;;;;;;;;;5111352;28;20026;-83
2022/10/26 05:28:43;;;;;;;15.75;12.88;;;;;;;;;;5094059;28;20020;-85
2022/10/26 05:31:15;;;;;;;23.13;14.93;;;;;;;;;;5112074;28;20072;-84
2022/10/26 05:36:42;;;;;;;23.90;15.32;;;;;;;;;;5064753;28;20496;-84
2022/10/26 05:39:28;;;;;;;17.85;13.70;;;;;;;;;;5130064;27;20041;-84
2022/10/26 05:41:54;;;;;;;18.83;13.93;;;;;;;;;;5111086;28;20023;-83
2022/10/26 05:44:20;;;;;;;16.60;13.23;;;;;;;;;;5112613;28;20054;-80
2022/10/26 05:46:47;;;;;;;20.23;13.52;;;;;;;;;;5131215;28;20375;-81
2022/10/26 05:49:14;;;;;;;22.17;12.48;;;;;;;;;;5130121;28;20047;-81
2022/10/26 05:51:40;;;;;;;19.45;14.43;;;;;;;;;;5131633;28;20070;-82
2022/10/26 05:54:06;;;;;;;21.08;14.25;;;;;;;;;;5131587;28;20028;-79
2022/10/26 05:56:34;;;;;;;21.08;15.30;;;;;;;;;;5131899;28;20051;-80
2022/10/26 05:59:01;;;;;;;19.95;13.32;;;;;;;;;;5130884;28;20100;-79
2022/10/26 06:01:45;;;;;;;21.05;14.98;;;;;;;;;;5131787;28;20027;-81
2022/10/26 06:04:30;;;;;;;20.95;14.07;;;;;;;;;;5131552;28;20023;-82
2022/10/26 06:06:57;;;;;;;24.50;15.90;;;;;;;;;;5131522;28;20083;-82
2022/10/26 06:09:23;;;;;;;19.17;13.75;;;;;;;;;;5133246;27;20024;-79
2022/10/26 06:11:49;;;;;;;32.58;15.15;;;;;;;;;;5135662;27;20034;-86
2022/10/26 06:14:15;;;;;;;22.23;12.95;;;;;;;;;;5116270;27;20489;-82
2022/10/26 06:16:54;;;;;;;19.25;12.52;;;;;;;;;;5116338;27;20030;-82
2022/10/26 06:19:39;;;;;;;19.38;12.25;;;;;;;;;;5115452;27;20057;-82
2022/10/26 06:22:07;;;;;;;15.98;11.13;;;;;;;;;;5134711;27;20045;-80
2022/10/26 06:24:50;;;;;;;16.67;10.63;;;;;;;;;;5135077;27;20377;-80
2022/10/26 06:27:35;;;;;;;14.60;11.55;;;;;;;;;;5135265;27;20019;-80
2022/10/26 06:30:06;;;;;;;17.52;12.63;;;;;;;;;;5134728;27;20028;-79
2022/10/26 06:32:32;;;;;;;16.95;12.75;;;;;;;;;;5135107;27;20015;-79
2022/10/26 06:35:17;;;;;;;20.70;11.85;;;;;;;;;;5134574;27;20046;-80
2022/10/26 06:37:44;;;;;;;16.27;11.73;;;;;;;;;;5135321;27;20030;-81
2022/10/26 06:40:12;;;;;;;27.45;21.75;;;;;;;;;;5134850;27;20035;-81
2022/10/26 06:42:38;;;;;;;25.98;18.05;;;;;;;;;;5134422;27;20031;-80
2022/10/26 06:45:04;;;;;;;18.02;13.13;;;;;;;;;;5134381;27;20019;-80
2022/10/26 06:47:34;;;;;;;23.70;16.25;;;;;;;;;;5134713;27;20098;-82
2022/10/26 06:50:12;;;;;;;18.75;12.77;;;;;;;;;;5134777;27;20089;-81
2022/10/26 06:52:43;;;;;;;14.45;11.80;;;;;;;;;;5131107;27;20059;-82
2022/10/26 06:55:14;;;;;;;19.60;13.30;;;;;;;;;;5134333;27;20026;-80
2022/10/26 06:57:41;;;;;;;15.27;10.60;;;;;;;;;;5134429;27;20075;-79
2022/10/26 07:00:19;;;;;;;15.38;11.00;;;;;;;;;;5134477;27;20386;-81
2022/10/26 07:02:45;;;;;;;15.98;11.80;;;;;;;;;;5129525;27;20027;-86
2022/10/26 07:05:11;;;;;;;17.55;11.90;;;;;;;;;;5132348;27;20082;-86
2022/10/26 07:07:42;;;;;;;16.38;12.15;;;;;;;;;;5116764;27;20232;-86
2022/10/26 07:10:09;;;;;;;15.95;10.60;;;;;;;;;;5132091;27;20024;-84
2022/10/26 07:12:35;;;;;;;17.65;11.32;;;;;;;;;;5115245;27;20386;-81
2022/10/26 07:15:01;;;;;;;15.30;11.02;;;;;;;;;;5117105;27;20023;-79
2022/10/26 07:17:29;;;;;;;19.10;11.43;;;;;;;;;;5133548;27;20033;-79
2022/10/26 07:19:55;;;;;;;14.18;10.02;;;;;;;;;;5133621;27;20046;-79
2022/10/26 07:22:21;;;;;;;13.30;9.73;;;;;;;;;;5133052;27;20027;-77
2022/10/26 07:24:51;;;;;;;13.57;10.27;;;;;;;;;;5133471;27;20031;-77
2022/10/26 07:27:20;;;;;;;19.98;12.10;;;;;;;;;;5133495;27;20016;-79
2022/10/26 07:29:46;;;;;;;15.20;10.07;;;;;;;;;;5132931;27;20027;-83
2022/10/26 07:32:12;;;;;;;14.38;9.05;;;;;;;;;;5133197;27;20394;-82
2022/10/26 07:34:38;;;;;;;13.98;11.00;;;;;;;;;;5132085;27;20106;-79
2022/10/26 07:37:04;;;;;;;12.15;9.15;;;;;;;;;;5129336;27;20019;-84
2022/10/26 07:42:15;;;;;;;12.13;9.25;;;;;;;;;;5130100;27;20039;-82
2022/10/26 07:44:41;;;;;;;11.48;8.30;;;;;;;;;;5130839;27;20028;-80
2022/10/26 07:47:07;;;;;;;14.98;9.68;;;;;;;;;;5126768;27;20034;-79
2022/10/26 07:49:34;;;;;;;13.18;8.32;;;;;;;;;;5125484;27;20027;-81
2022/10/26 07:52:03;;;;;;;12.70;8.50;;;;;;;;;;5127954;27;20050;-78
2022/10/26 07:54:29;;;;;;;13.48;7.63;;;;;;;;;;5124065;27;20398;-81
2022/10/26 07:56:56;;;;;;;9.82;7.70;;;;;;;;;;5111373;27;20023;-80
2022/10/26 07:59:22;;;;;;;12.05;8.02;;;;;;;;;;5125666;27;20022;-78
2022/10/26 08:01:49;;;;;;;12.18;8.52;;;;;;;;;;5112824;28;20050;-77
2022/10/26 08:04:15;;;;;;;11.63;8.43;;;;;;;;;;5112331;28;20028;-78
2022/10/26 08:06:41;;;;;;;15.07;8.32;;;;;;;;;;5120486;27;20423;-81
2022/10/26 08:09:08;;;;;;;31.60;14.52;;;;;;;;;;5133253;27;20039;-81
2022/10/26 08:11:35;;;;;;;17.30;9.93;;;;;;;;;;5132784;27;20031;-83
2022/10/26 08:14:02;;;;;;;20.45;9.95;;;;;;;;;;5133173;27;20027;-84
2022/10/26 08:16:28;;;;;;;14.95;8.82;;;;;;;;;;5133098;27;20070;-83
2022/10/26 08:18:54;;;;;;;10.93;7.28;;;;;;;;;;5133159;27;20039;-81
2022/10/26 08:21:20;;;;;;;10.45;7.47;;;;;;;;;;5132961;27;20034;-80
2022/10/26 08:23:46;;;;;;;11.55;7.35;;;;;;;;;;5133075;27;20027;-83
2022/10/26 08:26:13;;;;;;;40.53;15.70;;;;;;;;;;5133663;27;20427;-88
2022/10/26 08:28:39;;;;;;;30.20;12.95;;;;;;;;;;5133083;27;20033;-90
2022/10/26 08:31:06;;;;;;;11.50;7.82;;;;;;;;;;5115148;27;20105;-85
2022/10/26 08:33:32;;;;;;;16.35;8.45;;;;;;;;;;5132876;27;20023;-89
2022/10/26 08:35:58;;;;;;;13.45;8.02;;;;;;;;;;5114374;27;20030;-85
2022/10/26 08:38:25;;;;;;;10.18;6.80;;;;;;;;;;5130680;27;20015;-81
2022/10/26 08:40:51;;;;;;;10.15;7.00;;;;;;;;;;5129669;27;20024;-83
2022/10/26 08:43:38;;;;;;;10.23;7.32;;;;;;;;;;5110406;27;20142;-82
2022/10/26 08:46:10;;;;;;;9.95;6.75;;;;;;;;;;5127515;27;20110;-82
2022/10/26 08:48:38;;;;;;;7.88;5.63;;;;;;;;;;5122276;27;20040;-82
2022/10/26 08:51:16;;;;;;;11.32;8.00;;;;;;;;;;5132150;27;20043;-81
2022/10/26 08:53:42;;;;;;;8.98;7.00;;;;;;;;;;5129783;27;20036;-80
2022/10/26 08:56:18;;;;;;;8.45;5.72;;;;;;;;;;5125968;27;20024;-79
2022/10/26 08:58:51;;;;;;;9.75;5.85;;;;;;;;;;5106882;27;20034;-81
2022/10/26 09:01:18;;;;;;;11.88;6.70;;;;;;;;;;5123125;27;20065;-81
2022/10/26 09:03:44;;;;;;;10.60;6.57;;;;;;;;;;5117233;27;20114;-78
2022/10/26 09:06:17;;;;;;;9.90;6.60;;;;;;;;;;5124149;27;20063;-86
2022/10/26 09:08:46;;;;;;;7.93;6.30;;;;;;;;;;5130564;27;20038;-80
2022/10/26 09:11:18;;;;;;;10.18;6.22;;;;;;;;;;5130767;27;20035;-80
2022/10/26 09:13:44;;;;;;;9.50;6.05;;;;;;;;;;5112908;28;20087;-79
2022/10/26 09:16:29;;;;;;;10.88;6.78;;;;;;;;;;5123173;27;20110;-81
2022/10/26 09:19:14;;;;;;;9.27;7.43;;;;;;;;;;5131744;27;20027;-84
2022/10/26 09:21:40;;;;;;;;;;;;;;;;;;5132034;28;20031;-83
2022/10/26 09:24:25;;;;;;;10.43;6.40;;;;;;;;;;5132205;28;20014;-81
2022/10/26 09:26:51;;;;;;;13.82;5.88;;;;;;;;;;5112807;28;20102;-81
2022/10/26 09:29:18;;;;;;;17.88;11.27;;;;;;;;;;5131481;28;20106;-81
2022/10/26 09:31:47;;;;;;;11.20;6.80;;;;;;;;;;5131996;28;20031;-81
2022/10/26 09:34:19;;;;;;;12.20;6.85;;;;;;;;;;5127715;27;20435;-83
2022/10/26 09:36:45;;;;;;;9.57;6.38;;;;;;;;;;5128066;28;20023;-75
2022/10/26 09:39:21;;;;;;;9.82;6.07;;;;;;;;;;5112483;28;20496;-81
2022/10/26 09:41:57;;;;;;;10.52;6.10;;;;;;;;;;5110880;28;20117;-80
2022/10/26 09:44:42;;;;;;;10.98;7.82;;;;;;;;;;5130557;27;20077;-82
2022/10/26 09:47:20;;;;;;;10.68;7.30;;;;;;;;;;5109839;27;20020;-80
2022/10/26 09:49:49;;;;;;;17.25;14.10;;;;;;;;;;5135601;27;20023;-81
2022/10/26 09:52:16;;;;;;;14.77;10.23;;;;;;;;;;5135913;27;20051;-83
2022/10/26 09:54:42;;;;;;;10.13;5.90;;;;;;;;;;5135118;27;20019;-81
2022/10/26 09:57:08;;;;;;;13.52;10.48;;;;;;;;;;5134051;27;20030;-82
2022/10/26 09:59:37;;;;;;;13.73;8.20;;;;;;;;;;5134298;27;20523;-79
2022/10/26 10:02:23;;;;;;;10.70;5.72;;;;;;;;;;5133117;27;20606;-83
2022/10/26 10:04:49;;;;;;;5.65;4.10;;;;;;;;;;5131265;27;20037;-85
2022/10/26 10:07:22;;;;;;;7.22;6.43;;;;;;;;;;5115407;27;20028;-86
2022/10/26 10:10:06;;;;;;;8.15;4.90;;;;;;;;;;5134128;27;20291;-81
2022/10/26 10:12:32;;;;;;;9.80;4.63;;;;;;;;;;5123584;27;20015;-80
2022/10/26 10:14:58;;;;;;;7.80;5.13;;;;;;;;;;5113003;27;20032;-80
2022/10/26 10:17:25;;;;;;;14.15;7.63;;;;;;;;;;5113162;27;20452;-82
2022/10/26 10:19:51;;;;;;;5.82;4.57;;;;;;;;;;5112639;28;20364;-81
2022/10/26 10:22:24;;;;;;;8.07;4.72;;;;;;;;;;5112512;28;20439;-86
2022/10/26 10:25:00;;;;;;;11.13;5.15;;;;;;;;;;5099978;28;20056;-81
2022/10/26 10:27:27;;;;;;;8.43;4.28;;;;;;;;;;5105862;27;20024;-82
2022/10/26 10:29:57;;;;;;;6.00;3.83;;;;;;;;;;5111176;28;20431;-82
2022/10/26 10:32:29;;;;;;;5.25;3.65;;;;;;;;;;5119939;27;20559;-81
2022/10/26 10:34:56;;;;;;;7.28;3.00;;;;;;;;;;5108389;28;20027;-83
2022/10/26 10:37:25;;;;;;;6.32;3.30;;;;;;;;;;5113841;28;20031;-82
2022/10/26 10:39:55;;;;;;;8.05;4.47;;;;;;;;;;5114246;28;20051;-82
2022/10/26 10:42:23;;;;;;;5.93;4.07;;;;;;;;;;5107000;27;20124;-80
2022/10/26 10:44:55;;;;;;;7.40;3.60;;;;;;;;;;5105423;28;20059;-81
2022/10/26 10:47:48;;;;;;;8.88;5.05;;;;;;;;;;5102205;28;20023;-82
2022/10/26 10:50:14;;;;;;;6.18;4.05;;;;;;;;;;5094604;27;20096;-81
2022/10/26 10:52:40;;;;;;;7.28;4.40;;;;;;;;;;5113976;28;20083;-85
2022/10/26 10:55:14;;;;;;;7.43;3.60;;;;;;;;;;5103394;27;20440;-83
2022/10/26 10:57:53;;;;;;;7.32;3.47;;;;;;;;;;5111003;27;20020;-82
2022/10/26 11:00:20;;;;;;;6.35;4.20;;;;;;;;;;5111260;27;20027;-81
2022/10/26 11:03:04;;;;;;;6.43;4.47;;;;;;;;;;5115690;27;20065;-81
2022/10/26 11:05:49;;;;;;;5.90;4.22;;;;;;;;;;5134639;27;20029;-83
2022/10/26 11:08:19;;;;;;;9.45;3.95;;;;;;;;;;5134444;27;20026;-87
2022/10/26 11:10:53;;;;;;;6.97;3.65;;;;;;;;;;5113685;27;20023;-80
2022/10/26 11:13:19;;;;;;;;;;;;;;;;;;5108848;28;20427;-81
2022/10/26 11:15:48;;;;;;;8.20;3.78;;;;;;;;;;5112300;28;20027;-81
2022/10/26 11:18:21;;;;;;;7.00;3.15;;;;;;;;;;5101865;28;20520;-83
2022/10/26 11:20:56;;;;;;;10.03;4.57;;;;;;;;;;5102109;28;20038;-82
2022/10/26 11:23:30;;;;;;;8.95;4.18;;;;;;;;;;5096274;28;20273;-78
2022/10/26 11:26:00;;;;;;;7.80;3.97;;;;;;;;;;5105413;28;20024;-79
2022/10/26 11:28:35;;;;;;;6.72;3.15;;;;;;;;;;5122075;27;20648;-80
2022/10/26 11:31:03;;;;;;;6.00;3.45;;;;;;;;;;5133618;27;20024;-82
2022/10/26 11:33:33;;;;;;;6.22;3.50;;;;;;;;;;5133522;27;20046;-80
2022/10/26 11:36:08;;;;;;;5.75;3.08;;;;;;;;;;5116439;27;20378;-83
2022/10/26 11:38:52;;;;;;;7.45;3.60;;;;;;;;;;5134357;27;20478;-80
2022/10/26 11:41:18;;;;;;;;;;;;;;;;;;5134929;27;20051;-79
2022/10/26 11:43:45;;;;;;;6.55;3.58;;;;;;;;;;5132078;27;19926;-80
2022/10/26 11:46:17;;;;;;;8.48;4.63;;;;;;;;;;5131414;27;20499;-85
2022/10/26 11:48:43;;;;;;;11.27;5.07;;;;;;;;;;5134459;27;20485;-82
2022/10/26 11:51:16;;;;;;;15.00;3.85;;;;;;;;;;5133957;27;20429;-83
2022/10/26 11:53:43;;;;;;;10.68;5.25;;;;;;;;;;5133629;27;20030;-81
2022/10/26 11:56:24;;;;;;;8.90;4.90;;;;;;;;;;5133664;27;20037;-78
2022/10/26 11:58:51;;;;;;;13.52;5.03;;;;;;;;;;5123320;27;20087;-79
2022/10/26 12:01:17;;;;;;;13.07;5.47;;;;;;;;;;5132430;27;20026;-84
2022/10/26 12:03:46;;;;;;;16.95;4.88;;;;;;;;;;5132307;27;20054;-80
2022/10/26 12:06:18;;;;;;;14.13;8.05;;;;;;;;;;5133886;27;20023;-79
2022/10/26 12:09:03;;;;;;;5.45;3.08;;;;;;;;;;5133804;27;20035;-82
2022/10/26 12:11:47;;;;;;;16.00;5.28;;;;;;;;;;5133087;27;20019;-82
2022/10/26 12:14:32;;;;;;;6.15;3.97;;;;;;;;;;5133836;27;20454;-84
2022/10/26 12:16:58;;;;;;;;;;;;;;;;;;5134554;27;20390;-84
2022/10/26 12:19:28;;;;;;;11.95;7.32;;;;;;;;;;5133992;27;19903;-80
2022/10/26 12:21:54;;;;;;;12.90;5.13;;;;;;;;;;5133564;27;20175;-80
2022/10/26 12:24:23;;;;;;;12.52;6.05;;;;;;;;;;5133318;27;20030;-84
2022/10/26 12:26:51;;;;;;;11.00;5.05;;;;;;;;;;5134011;27;20019;-79
2022/10/26 12:29:31;;;;;;;6.95;3.80;;;;;;;;;;5133741;27;20026;-81
2022/10/26 12:31:57;;;;;;;7.60;3.50;;;;;;;;;;5133643;27;20072;-78
2022/10/26 12:34:30;;;;;;;9.35;4.60;;;;;;;;;;5132959;27;20508;-79
2022/10/26 12:36:56;;;;;;;10.25;4.68;;;;;;;;;;5126959;27;20035;-81
2022/10/26 12:39:40;;;;;;;9.50;3.22;;;;;;;;;;5129259;27;20019;-82
2022/10/26 12:42:09;;;;;;;6.57;2.80;;;;;;;;;;5133107;27;20511;-80
2022/10/26 12:44:44;;;;;;;8.75;3.22;;;;;;;;;;5132733;27;20034;-81
2022/10/26 12:47:31;;;;;;;6.20;2.80;;;;;;;;;;5126882;27;20079;-80
2022/10/26 12:50:06;;;;;;;6.40;3.22;;;;;;;;;;5104301;27;20036;-78
2022/10/26 12:52:41;;;;;;;8.73;4.47;;;;;;;;;;5133017;27;20058;-78
2022/10/26 12:55:07;;;;;;;5.63;2.95;;;;;;;;;;5131151;27;20031;-81
2022/10/26 12:57:40;;;;;;;6.43;3.60;;;;;;;;;;5124922;27;20409;-83
2022/10/26 13:00:12;;;;;;;8.95;3.15;;;;;;;;;;5113056;27;20027;-81
2022/10/26 13:02:58;;;;;;;5.03;3.05;;;;;;;;;;5132350;27;20076;-80
2022/10/26 13:05:43;;;;;;;6.00;2.42;;;;;;;;;;5115963;27;20095;-82
2022/10/26 13:08:10;;;;;;;5.45;2.75;;;;;;;;;;5133599;27;20038;-82
2022/10/26 13:10:37;;;;;;;6.40;2.58;;;;;;;;;;5133430;27;20119;-79
2022/10/26 13:13:05;;;;;;;4.40;2.42;;;;;;;;;;5133198;27;20023;-81
2022/10/26 13:15:51;;;;;;;4.97;2.20;;;;;;;;;;5133100;27;20023;-80
2022/10/26 13:18:19;;;;;;;4.50;2.20;;;;;;;;;;5132835;27;20096;-85
2022/10/26 13:21:15;;;;;;;5.68;2.10;;;;;;;;;;5132451;27;20054;-82
2022/10/26 13:24:00;;;;;;;5.03;2.65;;;;;;;;;;5106209;28;20023;-80
2022/10/26 13:26:30;;;;;;;4.82;2.50;;;;;;;;;;5133973;28;20153;-79
2022/10/26 13:28:57;;;;;;;5.40;2.40;;;;;;;;;;5114183;28;20385;-80
2022/10/26 13:31:31;;;;;;;7.10;2.20;;;;;;;;;;5133019;28;20076;-79
2022/10/26 13:34:04;;;;;;;7.72;2.72;;;;;;;;;;5133511;28;20040;-81
2022/10/26 13:36:36;;;;;;;6.28;2.60;;;;;;;;;;5133710;28;20019;-78
2022/10/26 13:39:14;;;;;;;4.55;2.45;;;;;;;;;;5132780;28;20481;-80
2022/10/26 13:41:43;;;;;;;5.82;2.50;;;;;;;;;;5132818;28;20477;-80
2022/10/26 13:44:21;;;;;;;6.80;2.30;;;;;;;;;;5133098;28;20055;-82
2022/10/26 13:46:51;;;;;;;8.00;3.00;;;;;;;;;;5114041;28;20109;-80
2022/10/26 13:49:24;;;;;;;4.45;2.30;;;;;;;;;;5132561;28;20019;-84
2022/10/26 13:51:56;;;;;;;6.65;4.65;;;;;;;;;;5132352;28;20051;-79
2022/10/26 13:54:35;;;;;;;6.88;2.33;;;;;;;;;;5113951;28;20039;-81
2022/10/26 13:57:04;;;;;;;10.77;2.67;;;;;;;;;;5132569;28;20026;-82
2022/10/26 13:59:30;;;;;;;5.68;2.33;;;;;;;;;;5132593;28;20047;-80
2022/10/26 14:02:07;;;;;;;7.18;2.42;;;;;;;;;;5133100;28;20042;-79
2022/10/26 14:04:33;;;;;;;4.00;2.05;;;;;;;;;;5132640;28;20403;-81
2022/10/26 14:06:59;;;;;;;5.50;1.98;;;;;;;;;;5132951;28;20470;-81
2022/10/26 14:09:25;;;;;;;4.15;2.05;;;;;;;;;;5132984;28;20080;-82
2022/10/26 14:11:54;;;;;;;7.30;4.13;;;;;;;;;;5132465;28;20496;-79
2022/10/26 14:14:25;;;;;;;6.57;3.22;;;;;;;;;;5132457;28;20104;-82
2022/10/26 14:16:52;;;;;;;6.15;3.05;;;;;;;;;;5132777;28;20102;-81
2022/10/26 14:19:37;;;;;;;7.70;3.15;;;;;;;;;;5132654;28;20523;-80
2022/10/26 14:22:04;;;;;;;5.32;3.03;;;;;;;;;;5114377;28;20155;-85
2022/10/26 14:24:33;;;;;;;6.75;2.80;;;;;;;;;;5132858;28;20564;-82
2022/10/26 14:26:59;;;;;;;6.30;3.72;;;;;;;;;;5132361;28;20078;-81
2022/10/26 14:29:27;;;;;;;7.10;3.05;;;;;;;;;;5132947;27;20015;-86
2022/10/26 14:31:56;;;;;;;5.80;3.03;;;;;;;;;;5136269;27;20024;-84
2022/10/26 14:34:22;;;;;;;5.80;2.67;;;;;;;;;;5136612;27;20035;-84
2022/10/26 14:36:51;;;;;;;6.30;3.25;;;;;;;;;;5136006;27;20482;-80
2022/10/26 14:39:20;;;;;;;4.65;2.55;;;;;;;;;;5136392;27;20083;-82
2022/10/26 14:41:46;;;;;;;8.80;4.28;;;;;;;;;;5136081;27;20098;-81
2022/10/26 14:44:16;;;;;;;5.65;2.70;;;;;;;;;;5135968;27;20031;-84
2022/10/26 14:46:43;;;;;;;10.23;3.55;;;;;;;;;;5135759;27;20030;-80
2022/10/26 14:49:17;;;;;;;7.50;4.18;;;;;;;;;;5134900;27;20090;-84
2022/10/26 14:51:43;;;;;;;8.85;3.88;;;;;;;;;;5135412;27;20070;-80
2022/10/26 14:54:28;;;;;;;5.63;3.65;;;;;;;;;;5136036;27;20025;-82